createdAt,value
2023-01-04T00:04:20.939Z,5.55
2023-01-04T00:09:26.622Z,4.93
2023-01-04T00:14:33.819Z,5.20
2023-01-04T00:17:06.996Z,4.70
2023-01-04T00:19:40.337Z,4.97
2023-01-04T00:22:13.435Z,5.35
2023-01-04T00:24:46.706Z,4.85
2023-01-04T00:27:21.228Z,4.60
2023-01-04T00:29:54.475Z,4.28
2023-01-04T00:32:27.516Z,3.75
2023-01-04T00:37:35.523Z,4.18
2023-01-04T00:42:43.231Z,3.78
2023-01-04T00:45:16.653Z,3.72
2023-01-04T00:47:49.521Z,3.88
2023-01-04T00:52:57.673Z,3.63
2023-01-04T00:58:05.981Z,3.38
2023-01-04T01:00:39.555Z,4.38
2023-01-04T01:03:12.734Z,4.57
2023-01-04T01:05:45.894Z,3.95
2023-01-04T01:11:04.982Z,3.78
2023-01-04T01:13:40.273Z,3.92
2023-01-04T01:16:17.101Z,4.13
2023-01-04T01:18:50.736Z,4.38
2023-01-04T01:21:27.185Z,3.17
2023-01-04T01:24:00.053Z,3.63
2023-01-04T01:29:10.286Z,3.05
2023-01-04T01:31:43.588Z,3.08
2023-01-04T01:34:16.535Z,2.97
2023-01-04T01:39:22.051Z,2.90
2023-01-04T01:41:56.372Z,3.35
2023-01-04T01:44:56.220Z,3.13
2023-01-04T01:47:37.095Z,3.50
2023-01-04T01:50:21.898Z,3.65
2023-01-04T01:52:56.108Z,3.05
2023-01-04T01:55:32.373Z,3.40
2023-01-04T01:58:09.896Z,3.50
2023-01-04T02:00:44.184Z,2.92
2023-01-04T02:03:19.930Z,3.42
2023-01-04T02:05:56.500Z,3.28
2023-01-04T02:08:31.147Z,2.92
2023-01-04T02:11:04.883Z,2.63
2023-01-04T02:13:58.161Z,3.17
2023-01-04T02:16:52.116Z,2.92
2023-01-04T02:19:43.939Z,2.97
2023-01-04T02:23:11.918Z,2.75
2023-01-04T02:26:10.667Z,2.78
2023-01-04T02:29:08.105Z,2.40
2023-01-04T02:31:46.447Z,2.67
2023-01-04T02:34:29.807Z,2.97
2023-01-04T02:37:13.146Z,2.67
2023-01-04T02:39:57.417Z,2.83
2023-01-04T02:42:58.760Z,2.40
2023-01-04T02:45:39.098Z,2.75
2023-01-04T02:48:31.561Z,3.53
2023-01-04T02:51:04.766Z,3.30
2023-01-04T02:53:41.329Z,2.88
2023-01-04T02:56:35.308Z,3.08
2023-01-04T02:59:22.420Z,3.20
2023-01-04T03:02:22.119Z,2.88
2023-01-04T03:05:24.236Z,3.38
2023-01-04T03:08:06.844Z,3.00
2023-01-04T03:10:42.668Z,3.55
2023-01-04T03:13:19.708Z,3.03
2023-01-04T03:15:55.843Z,3.17
2023-01-04T03:18:32.051Z,2.95
2023-01-04T03:21:10.733Z,2.60
2023-01-04T03:24:03.693Z,2.88
2023-01-04T03:26:58.310Z,2.75
2023-01-04T03:29:55.575Z,3.53
2023-01-04T03:32:55.012Z,3.45
2023-01-04T03:35:38.703Z,3.10
2023-01-04T03:38:37.869Z,2.38
2023-01-04T03:41:37.625Z,3.40
2023-01-04T03:44:33.219Z,3.67
2023-01-04T03:47:27.355Z,4.05
2023-01-04T03:50:08.146Z,3.72
2023-01-04T03:52:44.785Z,4.07
2023-01-04T03:55:19.831Z,3.42
2023-01-04T03:57:53.813Z,3.47
2023-01-04T04:00:27.200Z,3.35
2023-01-04T04:03:07.379Z,3.25
2023-01-04T04:05:59.949Z,3.50
2023-01-04T04:08:32.728Z,3.43
2023-01-04T04:11:21.065Z,3.47
2023-01-04T04:13:54.121Z,3.65
2023-01-04T04:19:06.457Z,2.88
2023-01-04T04:21:41.696Z,3.33
2023-01-04T04:24:19.111Z,3.55
2023-01-04T04:26:54.835Z,3.95
2023-01-04T04:29:27.719Z,3.78
2023-01-04T04:34:33.939Z,3.65
2023-01-04T04:37:07.199Z,3.65
2023-01-04T04:39:39.995Z,3.65
2023-01-04T04:42:13.337Z,3.47
2023-01-04T04:44:46.334Z,3.40
2023-01-04T04:49:51.962Z,3.30
2023-01-04T04:54:57.939Z,3.10
2023-01-04T05:00:06.410Z,3.33
2023-01-04T05:02:39.664Z,3.17
2023-01-04T05:05:12.684Z,3.15
2023-01-04T05:07:45.852Z,3.08
2023-01-04T05:10:19.179Z,2.80
2023-01-04T05:13:01.328Z,2.85
2023-01-04T05:15:36.795Z,2.95
2023-01-04T05:18:11.790Z,3.47
2023-01-04T05:20:44.969Z,3.85
2023-01-04T05:23:20.090Z,4.90
2023-01-04T05:25:57.599Z,3.78
2023-01-04T05:28:32.021Z,3.42
2023-01-04T05:31:03.908Z,3.72
2023-01-04T05:33:36.795Z,3.55
2023-01-04T05:38:42.517Z,3.70
2023-01-04T05:41:29.225Z,3.30
2023-01-04T05:44:03.450Z,3.50
2023-01-04T05:46:36.264Z,3.03
2023-01-04T05:49:09.056Z,3.13
2023-01-04T05:51:41.901Z,3.33
2023-01-04T05:56:54.318Z,2.75
2023-01-04T05:59:28.574Z,3.45
2023-01-04T06:02:01.526Z,3.75
2023-01-04T06:07:07.185Z,3.70
2023-01-04T06:12:13.433Z,3.13
2023-01-04T06:14:47.856Z,3.30
2023-01-04T06:17:21.908Z,3.78
2023-01-04T06:19:54.816Z,3.33
2023-01-04T06:22:28.762Z,3.30
2023-01-04T06:25:01.750Z,3.70
2023-01-04T06:30:10.053Z,3.15
2023-01-04T06:32:43.550Z,3.92
2023-01-04T06:35:16.681Z,4.38
2023-01-04T06:37:49.895Z,4.47
2023-01-04T06:40:23.055Z,3.80
2023-01-04T06:42:56.759Z,3.35
2023-01-04T06:45:31.066Z,3.90
2023-01-04T06:48:09.193Z,4.53
2023-01-04T06:50:44.425Z,3.85
2023-01-04T06:53:17.636Z,3.67
2023-01-04T06:55:50.758Z,3.53
2023-01-04T06:58:23.758Z,5.18
2023-01-04T07:00:58.316Z,4.85
2023-01-04T07:03:31.173Z,3.55
2023-01-04T07:06:08.231Z,3.40
2023-01-04T07:08:41.221Z,4.07
2023-01-04T07:13:46.855Z,4.88
2023-01-04T07:16:21.678Z,3.88
2023-01-04T07:18:54.537Z,4.13
2023-01-04T07:21:27.356Z,3.92
2023-01-04T07:24:00.100Z,4.35
2023-01-04T07:26:33.044Z,3.78
2023-01-04T07:29:18.350Z,3.47
2023-01-04T07:31:53.690Z,3.40
2023-01-04T07:34:27.404Z,4.50
2023-01-04T07:37:00.631Z,3.08
2023-01-04T07:39:33.531Z,4.18
2023-01-04T07:42:06.579Z,4.35
2023-01-04T07:47:14.256Z,3.45
2023-01-04T07:49:50.185Z,3.42
2023-01-04T07:52:23.387Z,3.25
2023-01-04T07:54:56.329Z,5.07
2023-01-04T07:57:29.556Z,4.70
2023-01-04T08:00:02.297Z,4.72
2023-01-04T08:02:46.114Z,5.50
2023-01-04T08:05:19.124Z,4.95
2023-01-04T08:10:27.404Z,4.82
2023-01-04T08:13:01.084Z,5.28
2023-01-04T08:15:34.211Z,5.47
2023-01-04T08:18:09.261Z,5.25
2023-01-04T08:20:42.464Z,5.32
2023-01-04T08:23:15.593Z,6.43
2023-01-04T08:25:48.388Z,6.35
2023-01-04T08:28:21.432Z,6.70
2023-01-04T08:33:28.825Z,6.80
2023-01-04T08:36:09.507Z,5.57
2023-01-04T08:44:43.613Z,5.72
2023-01-04T08:49:50.781Z,5.47
2023-01-04T08:52:23.918Z,6.72
2023-01-04T08:57:29.429Z,6.23
2023-01-04T09:00:02.371Z,6.03
2023-01-04T09:02:35.321Z,5.53
2023-01-04T09:07:42.978Z,5.75
2023-01-04T09:15:21.922Z,7.20
2023-01-04T09:20:49.117Z,5.40
2023-01-04T09:23:22.119Z,5.30
2023-01-04T09:28:27.978Z,6.80
2023-01-04T09:31:06.253Z,5.95
2023-01-04T09:34:12.246Z,6.13
2023-01-04T09:36:36.863Z,5.60
2023-01-04T09:39:16.710Z,5.65
2023-01-04T09:41:58.486Z,6.80
2023-01-04T09:47:39.808Z,6.03
2023-01-04T09:50:17.455Z,7.53
2023-01-04T09:52:58.706Z,5.55
2023-01-04T09:55:37.059Z,5.15
2023-01-04T09:58:25.680Z,6.95
2023-01-04T10:01:02.893Z,6.30
2023-01-04T10:03:38.855Z,5.43
2023-01-04T10:06:15.723Z,4.80
2023-01-04T10:08:50.555Z,4.30
2023-01-04T10:11:37.193Z,4.28
2023-01-04T10:14:31.353Z,3.95
2023-01-04T10:17:28.159Z,5.10
2023-01-04T10:23:36.122Z,3.53
2023-01-04T10:26:14.790Z,3.80
2023-01-04T10:29:15.722Z,4.13
2023-01-04T10:31:54.880Z,3.08
2023-01-04T10:34:31.254Z,3.33
2023-01-04T10:37:13.640Z,3.88
2023-01-04T10:39:47.212Z,2.35
2023-01-04T10:42:31.838Z,3.45
2023-01-04T10:45:14.037Z,3.13
2023-01-04T10:47:57.706Z,3.53
2023-01-04T10:50:38.043Z,2.03
2023-01-04T10:53:16.957Z,3.33
2023-01-04T10:56:23.726Z,2.90
2023-01-04T10:58:53.425Z,3.15
2023-01-04T11:01:31.446Z,2.90
2023-01-04T11:04:11.518Z,3.72
2023-01-04T11:06:49.884Z,2.60
2023-01-04T11:09:25.989Z,3.25
2023-01-04T11:11:58.988Z,2.38
2023-01-04T11:14:37.229Z,3.97
2023-01-04T11:17:12.817Z,2.63
2023-01-04T11:19:45.678Z,3.03
2023-01-04T11:22:23.341Z,3.10
2023-01-04T11:28:02.200Z,3.97
2023-01-04T11:30:47.596Z,4.57
2023-01-04T11:33:23.369Z,4.03
2023-01-04T11:35:59.217Z,3.72
2023-01-04T11:38:32.400Z,3.80
2023-01-04T11:43:41.031Z,4.95
2023-01-04T11:46:25.398Z,5.28
2023-01-04T11:48:58.581Z,3.70
2023-01-04T11:51:39.431Z,5.05
2023-01-04T11:54:20.833Z,5.05
2023-01-04T11:57:08.820Z,4.70
2023-01-04T11:59:43.802Z,5.07
2023-01-04T12:02:58.551Z,4.22
2023-01-04T12:05:28.167Z,4.18
2023-01-04T12:08:02.140Z,4.35
2023-01-04T12:10:34.992Z,4.40
2023-01-04T12:13:11.139Z,4.03
2023-01-04T12:15:55.361Z,4.20
2023-01-04T12:18:31.767Z,4.05
2023-01-04T12:21:05.608Z,5.38
2023-01-04T12:23:38.714Z,4.82
2023-01-04T12:26:12.866Z,4.68
2023-01-04T12:28:47.422Z,4.03
2023-01-04T12:31:32.383Z,4.43
2023-01-04T12:34:44.519Z,4.28
2023-01-04T12:37:49.448Z,4.63
2023-01-04T12:40:59.331Z,4.82
2023-01-04T12:43:44.656Z,4.15
2023-01-04T12:47:00.872Z,3.72
2023-01-04T12:49:52.474Z,4.20
2023-01-04T12:53:10.059Z,4.05
2023-01-04T12:55:58.728Z,4.10
2023-01-04T13:02:21.828Z,3.97
2023-01-04T13:05:43.684Z,4.43
2023-01-04T13:07:53.363Z,3.88
2023-01-04T13:10:33.275Z,4.03
2023-01-04T13:13:21.573Z,4.35
2023-01-04T13:16:11.405Z,4.72
2023-01-04T13:18:49.132Z,3.72
2023-01-04T13:21:29.563Z,3.60
2023-01-04T13:24:05.167Z,3.92
2023-01-04T13:26:41.051Z,3.83
2023-01-04T13:29:16.930Z,5.70
2023-01-04T13:31:56.217Z,4.10
2023-01-04T13:34:32.939Z,5.00
2023-01-04T13:37:18.266Z,4.47
2023-01-04T13:39:53.219Z,4.25
2023-01-04T13:42:28.893Z,5.15
2023-01-04T13:45:25.537Z,4.18
2023-01-04T13:48:01.615Z,4.57
2023-01-04T13:50:36.794Z,4.30
2023-01-04T13:53:21.533Z,4.00
2023-01-04T13:55:55.478Z,3.63
2023-01-04T13:58:30.693Z,4.53
2023-01-04T14:01:08.061Z,3.78
2023-01-04T14:03:43.643Z,5.70
2023-01-04T14:06:21.218Z,4.70
2023-01-04T14:09:00.863Z,4.65
2023-01-04T14:11:54.269Z,4.22
2023-01-04T14:14:50.022Z,4.72
2023-01-04T14:17:49.463Z,5.40
2023-01-04T14:20:37.475Z,6.13
2023-01-04T14:23:27.283Z,5.68
2023-01-04T14:26:03.056Z,5.75
2023-01-04T14:28:41.735Z,5.38
2023-01-04T14:31:38.236Z,6.25
2023-01-04T14:34:18.054Z,6.32
2023-01-04T14:36:50.857Z,6.50
2023-01-04T14:39:35.471Z,6.50
2023-01-04T14:42:26.772Z,6.20
2023-01-04T14:44:59.858Z,7.72
2023-01-04T14:47:32.708Z,6.70
2023-01-04T14:50:06.419Z,7.38
2023-01-04T14:52:39.192Z,7.40
2023-01-04T14:55:15.044Z,7.32
2023-01-04T14:57:49.178Z,6.80
2023-01-04T15:00:22.202Z,7.95
2023-01-04T15:02:55.421Z,7.75
2023-01-04T15:05:31.669Z,7.43
2023-01-04T15:08:07.169Z,7.93
2023-01-04T15:13:14.583Z,9.02
2023-01-04T15:15:47.830Z,7.13
2023-01-04T15:18:21.446Z,7.22
2023-01-04T15:20:54.762Z,5.88
2023-01-04T15:23:28.187Z,7.15
2023-01-04T15:26:01.870Z,8.85
2023-01-04T15:28:37.763Z,7.18
2023-01-04T15:31:13.098Z,7.60
2023-01-04T15:33:47.311Z,7.50
2023-01-04T15:36:23.982Z,8.52
2023-01-04T15:38:59.188Z,6.63
2023-01-04T15:41:49.335Z,7.00
2023-01-04T15:44:24.101Z,8.50
2023-01-04T15:46:59.287Z,7.70
2023-01-04T15:49:33.995Z,6.78
2023-01-04T15:52:08.400Z,6.80
2023-01-04T15:54:41.391Z,7.93
2023-01-04T15:57:16.788Z,8.00
2023-01-04T15:59:51.702Z,8.55
2023-01-04T16:02:24.804Z,5.93
2023-01-04T16:04:57.858Z,6.88
2023-01-04T16:10:10.357Z,6.90
2023-01-04T16:12:49.828Z,8.27
2023-01-04T16:15:32.203Z,7.82
2023-01-04T16:18:11.407Z,7.28
2023-01-04T16:20:47.952Z,7.97
2023-01-04T16:23:21.139Z,7.93
2023-01-04T16:26:05.651Z,6.63
2023-01-04T16:28:39.184Z,6.13
2023-01-04T16:31:14.116Z,6.70
2023-01-04T16:33:49.641Z,7.95
2023-01-04T16:36:25.447Z,8.30
2023-01-04T16:38:59.158Z,8.60
2023-01-04T16:41:33.215Z,8.48
2023-01-04T16:44:07.391Z,8.63
2023-01-04T16:46:43.931Z,7.97
2023-01-04T16:49:18.631Z,9.68
2023-01-04T16:51:53.249Z,9.30
2023-01-04T16:54:26.466Z,10.05
2023-01-04T16:57:01.780Z,11.57
2023-01-04T16:59:39.305Z,9.32
2023-01-04T17:02:17.310Z,8.93
2023-01-04T17:04:57.117Z,9.93
2023-01-04T17:07:33.132Z,10.13
2023-01-04T17:10:07.435Z,9.48
2023-01-04T17:12:47.953Z,9.60
2023-01-04T17:18:20.890Z,12.43
2023-01-04T17:20:55.708Z,11.45
2023-01-04T17:23:37.967Z,9.60
2023-01-04T17:26:13.680Z,9.80
2023-01-04T17:28:47.665Z,11.02
2023-01-04T17:31:26.296Z,11.18
2023-01-04T17:34:01.138Z,11.60
2023-01-04T17:36:36.617Z,13.45
2023-01-04T17:39:09.567Z,12.40
2023-01-04T17:41:42.401Z,12.50
2023-01-04T17:44:17.924Z,11.73
2023-01-04T17:46:50.888Z,12.27
2023-01-04T17:49:31.045Z,12.35
2023-01-04T17:52:07.038Z,11.77
2023-01-04T17:54:41.434Z,13.10
2023-01-04T17:57:14.384Z,13.07
2023-01-04T18:02:19.976Z,12.87
2023-01-04T18:04:54.384Z,11.80
2023-01-04T18:07:28.207Z,14.05
2023-01-04T18:10:04.432Z,13.23
2023-01-04T18:12:37.514Z,13.38
2023-01-04T18:17:43.709Z,14.13
2023-01-04T18:20:24.697Z,12.35
2023-01-04T18:22:58.658Z,12.85
2023-01-04T18:25:34.345Z,12.52
2023-01-04T18:28:09.205Z,13.60
2023-01-04T18:30:42.663Z,11.50
2023-01-04T18:33:20.393Z,13.38
2023-01-04T18:35:58.176Z,12.98
2023-01-04T18:38:31.464Z,14.25
2023-01-04T18:41:07.328Z,13.38
2023-01-04T18:43:58.827Z,11.93
2023-01-04T18:46:39.599Z,11.75
2023-01-04T18:49:14.327Z,11.68
2023-01-04T18:51:49.014Z,11.52
2023-01-04T18:54:24.909Z,11.85
2023-01-04T18:57:05.269Z,11.38
2023-01-04T18:59:41.288Z,12.93
2023-01-04T19:02:18.199Z,11.73
2023-01-04T19:04:51.669Z,11.00
2023-01-04T19:07:26.409Z,12.48
2023-01-04T19:10:02.588Z,13.10
2023-01-04T19:12:39.227Z,10.57
2023-01-04T19:15:12.868Z,10.70
2023-01-04T19:17:50.548Z,10.40
2023-01-04T19:20:23.666Z,9.88
2023-01-04T19:22:58.268Z,10.32
2023-01-04T19:25:31.521Z,11.80
2023-01-04T19:28:04.877Z,11.40
2023-01-04T19:30:40.088Z,11.85
2023-01-04T19:33:17.378Z,9.30
2023-01-04T19:35:50.376Z,9.93
2023-01-04T19:38:27.452Z,10.45
2023-01-04T19:41:04.045Z,12.18
2023-01-04T19:43:39.982Z,10.90
2023-01-04T19:46:13.466Z,10.52
2023-01-04T19:48:46.989Z,10.88
2023-01-04T19:51:24.897Z,11.82
2023-01-04T19:54:01.300Z,10.68
2023-01-04T19:56:34.430Z,9.63
2023-01-04T19:59:09.198Z,11.70
2023-01-04T20:01:46.383Z,10.98
2023-01-04T20:04:20.012Z,10.25
2023-01-04T20:06:54.785Z,9.30
2023-01-04T20:09:33.206Z,9.98
2023-01-04T20:12:08.177Z,10.15
2023-01-04T20:14:41.381Z,10.10
2023-01-04T20:17:14.677Z,9.57
2023-01-04T20:19:50.520Z,11.48
2023-01-04T20:22:23.797Z,11.20
2023-01-04T20:24:58.506Z,11.07
2023-01-04T20:27:31.818Z,10.18
2023-01-04T20:30:05.875Z,11.02
2023-01-04T20:32:39.139Z,10.55
2023-01-04T20:35:12.878Z,11.18
2023-01-04T20:37:48.841Z,11.07
2023-01-04T20:40:23.322Z,8.65
2023-01-04T20:43:15.336Z,9.55
2023-01-04T20:45:52.177Z,10.45
2023-01-04T20:48:25.320Z,8.90
2023-01-04T20:50:59.043Z,9.52
2023-01-04T20:53:38.901Z,10.52
2023-01-04T20:56:15.699Z,8.65
2023-01-04T20:58:49.375Z,9.43
2023-01-04T21:01:23.691Z,9.05
2023-01-04T21:03:57.080Z,10.00
2023-01-04T21:06:30.944Z,10.68
2023-01-04T21:09:04.436Z,10.15
2023-01-04T21:11:38.868Z,9.65
2023-01-04T21:14:18.302Z,10.38
2023-01-04T21:16:53.898Z,9.07
2023-01-04T21:19:27.467Z,9.25
2023-01-04T21:22:04.288Z,8.77
2023-01-04T21:24:37.681Z,10.40
2023-01-04T21:27:12.424Z,10.70
2023-01-04T21:29:46.815Z,10.05
2023-01-04T21:32:20.642Z,8.63
2023-01-04T21:34:55.712Z,9.45
2023-01-04T21:37:29.457Z,9.10
2023-01-04T21:40:02.346Z,8.82
2023-01-04T21:45:12.387Z,8.95
2023-01-04T21:47:48.525Z,7.03
2023-01-04T21:50:21.571Z,8.68
2023-01-04T21:52:58.059Z,9.02
2023-01-04T21:55:34.619Z,8.35
2023-01-04T21:58:11.318Z,7.80
2023-01-04T22:00:46.036Z,8.93
2023-01-04T22:03:19.419Z,8.45
2023-01-04T22:05:52.562Z,8.57
2023-01-04T22:10:58.330Z,8.67
2023-01-04T22:13:35.629Z,9.93
2023-01-04T22:16:10.943Z,7.72
2023-01-04T22:18:47.436Z,8.18
2023-01-04T22:21:23.950Z,8.68
2023-01-04T22:23:57.115Z,10.30
2023-01-04T22:26:30.249Z,9.30
2023-01-04T22:29:06.871Z,9.48
2023-01-04T22:31:39.806Z,8.35
2023-01-04T22:34:14.241Z,8.18
2023-01-04T22:36:47.295Z,7.15
2023-01-04T22:39:21.431Z,8.82
2023-01-04T22:41:54.375Z,7.95
2023-01-04T22:47:07.507Z,8.98
2023-01-04T22:49:40.486Z,8.57
2023-01-04T22:52:13.311Z,9.00
2023-01-04T22:54:49.390Z,8.40
2023-01-04T22:57:24.669Z,8.15
2023-01-04T22:59:59.070Z,7.85
2023-01-04T23:02:32.506Z,9.18
2023-01-04T23:05:06.324Z,8.15
2023-01-04T23:07:39.205Z,8.98
2023-01-04T23:12:48.260Z,9.45
2023-01-04T23:17:55.500Z,7.85
2023-01-04T23:23:01.857Z,8.05
2023-01-04T23:25:38.735Z,8.85
2023-01-04T23:28:11.785Z,10.15
2023-01-04T23:33:24.055Z,6.85
2023-01-04T23:36:00.093Z,7.88
2023-01-04T23:38:33.001Z,9.15
2023-01-04T23:43:39.821Z,8.77
2023-01-04T23:46:16.127Z,9.07
2023-01-04T23:48:49.066Z,7.82
2023-01-04T23:53:54.583Z,7.63
2023-01-04T23:59:01.041Z,8.80
